Time;durP1;ratioP1;P1;durP2;ratioP2;P2;SDS_P1;SDS_P2;PMS_P1;PMS_P2;Temp;Humidity;BMP_temperature;BMP_pressure;BME280_temperature;BME280_humidity;BME280_pressure;Samples;Min_cycle;Max_cycle;Signal;HPM_P1;HPM_P2
2022/01/29 00:02:18;;;;;;;11.63;10.40;;;5.80;99.90;;;;;;10430946;28;20305;-79
2022/01/29 00:07:20;;;;;;;13.37;11.20;;;5.80;99.90;;;;;;10435649;28;20197;-79
2022/01/29 00:12:22;;;;;;;11.40;10.27;;;5.80;99.90;;;;;;10447499;28;20232;-79
2022/01/29 00:17:26;;;;;;;13.33;11.77;;;5.90;99.90;;;;;;10443648;28;20205;-78
2022/01/29 00:22:28;;;;;;;13.37;11.67;;;5.80;99.90;;;;;;10462054;28;20610;-78
2022/01/29 00:27:34;;;;;;;11.77;10.30;;;5.80;99.90;;;;;;10436117;28;20205;-80
2022/01/29 00:32:37;;;;;;;13.73;10.30;;;5.80;99.90;;;;;;10424459;28;20197;-78
2022/01/29 00:37:39;;;;;;;11.60;10.40;;;5.80;99.90;;;;;;10430924;28;20251;-78
2022/01/29 00:42:42;;;;;;;14.97;10.67;;;5.80;99.90;;;;;;10460050;28;20244;-80
2022/01/29 00:47:46;;;;;;;10.73;9.63;;;5.70;99.90;;;;;;10458884;28;20546;-79
2022/01/29 00:52:48;;;;;;;9.23;8.33;;;5.70;99.90;;;;;;10439728;28;20210;-79
2022/01/29 00:57:50;;;;;;;11.33;9.70;;;5.80;99.90;;;;;;10431187;28;20206;-79
2022/01/29 01:02:54;;;;;;;12.10;9.70;;;5.80;99.90;;;;;;10460600;28;20278;-80
2022/01/29 01:07:56;;;;;;;9.70;8.40;;;5.80;99.90;;;;;;10432974;28;20256;-79
2022/01/29 01:12:58;;;;;;;10.13;8.43;;;5.90;99.90;;;;;;10436074;28;20216;-79
2022/01/29 01:18:01;;;;;;;10.87;7.60;;;5.80;99.90;;;;;;10455046;28;20700;-79
2022/01/29 01:23:03;;;;;;;9.50;8.30;;;5.90;99.90;;;;;;10460865;28;20221;-80
2022/01/29 01:28:06;;;;;;;10.13;8.87;;;5.90;99.90;;;;;;10427811;28;20267;-79
2022/01/29 01:33:09;;;;;;;9.20;8.30;;;5.90;99.90;;;;;;10437379;28;20233;-80
2022/01/29 01:38:16;;;;;;;8.60;7.70;;;6.00;99.90;;;;;;10439511;28;20900;-79
2022/01/29 01:43:18;;;;;;;8.73;7.93;;;6.00;99.90;;;;;;10419453;28;20225;-79
2022/01/29 01:48:21;;;;;;;8.70;7.63;;;6.10;99.90;;;;;;10430745;28;20206;-79
2022/01/29 01:53:24;;;;;;;9.60;7.97;;;6.10;99.90;;;;;;10445193;28;20217;-80
2022/01/29 01:58:26;;;;;;;9.37;8.13;;;6.10;99.90;;;;;;10454909;28;20269;-79
2022/01/29 02:03:30;;;;;;;8.23;7.47;;;6.20;99.90;;;;;;10432180;28;20222;-80
2022/01/29 02:08:32;;;;;;;11.63;8.07;;;6.20;99.90;;;;;;10452381;28;20689;-80
2022/01/29 02:13:34;;;;;;;9.40;8.50;;;6.20;99.90;;;;;;10422567;28;20209;-82
2022/01/29 02:18:38;;;;;;;10.17;7.80;;;6.10;99.90;;;;;;10442374;28;20229;-82
2022/01/29 02:23:41;;;;;;;8.57;7.60;;;6.10;99.90;;;;;;10429522;28;20656;-81
2022/01/29 02:28:43;;;;;;;8.13;7.43;;;6.00;99.90;;;;;;10437235;28;20200;-79
2022/01/29 02:33:45;;;;;;;7.80;7.03;;;6.00;99.90;;;;;;10421681;28;20689;-80
2022/01/29 02:38:49;;;;;;;8.80;7.70;;;5.90;99.90;;;;;;10429256;28;20207;-79
2022/01/29 02:43:52;;;;;;;7.43;6.73;;;5.90;99.90;;;;;;10439177;28;20218;-79
2022/01/29 02:48:54;;;;;;;7.57;6.87;;;5.80;99.90;;;;;;10458856;28;20231;-79
2022/01/29 02:53:57;;;;;;;7.07;6.47;;;5.80;99.90;;;;;;10461161;28;20217;-78
2022/01/29 02:58:59;;;;;;;9.47;6.87;;;5.70;99.90;;;;;;10444023;28;20198;-78
2022/01/29 03:04:02;;;;;;;6.90;6.13;;;5.60;99.90;;;;;;10440697;28;20595;-78
2022/01/29 03:09:08;;;;;;;6.63;6.03;;;5.50;99.90;;;;;;10439224;28;20202;-78
2022/01/29 03:14:10;;;;;;;7.80;6.53;;;5.40;99.90;;;;;;10446009;28;20270;-78
2022/01/29 03:19:12;;;;;;;7.07;5.70;;;5.30;99.90;;;;;;10457384;28;20575;-78
2022/01/29 03:24:15;;;;;;;7.90;7.10;;;5.20;99.90;;;;;;10433034;28;20236;-77
2022/01/29 03:29:18;;;;;;;7.13;6.43;;;5.10;99.90;;;;;;10437046;28;20198;-78
2022/01/29 03:34:20;;;;;;;6.83;6.13;;;5.10;99.90;;;;;;10427883;28;20217;-77
2022/01/29 03:39:25;;;;;;;6.60;6.10;;;5.10;99.90;;;;;;10433664;28;20194;-79
2022/01/29 03:44:27;;;;;;;5.90;5.30;;;5.10;99.90;;;;;;10423770;28;20230;-78
2022/01/29 03:49:30;;;;;;;6.40;5.83;;;5.20;99.90;;;;;;10441354;28;20309;-78
2022/01/29 03:54:33;;;;;;;6.97;6.30;;;5.30;99.90;;;;;;10418642;28;20268;-77
2022/01/29 03:59:36;;;;;;;6.83;6.17;;;5.40;99.90;;;;;;10421163;28;20630;-78
2022/01/29 04:04:38;;;;;;;8.33;6.20;;;5.50;99.90;;;;;;10431454;28;20226;-77
2022/01/29 04:09:47;;;;;;;6.30;5.70;;;5.60;99.90;;;;;;10436764;28;20297;-79
2022/01/29 04:14:51;;;;;;;5.20;4.80;;;5.70;99.90;;;;;;10418616;28;20214;-78
2022/01/29 04:19:53;;;;;;;5.83;5.23;;;5.70;99.90;;;;;;10436861;28;20198;-78
2022/01/29 04:24:57;;;;;;;4.40;4.00;;;5.80;99.90;;;;;;10433156;28;20618;-79
2022/01/29 04:30:02;;;;;;;4.33;4.03;;;5.80;99.90;;;;;;10446360;28;20201;-78
2022/01/29 04:35:05;;;;;;;4.33;3.93;;;5.90;99.90;;;;;;10449090;28;20236;-79
2022/01/29 04:40:10;;;;;;;6.17;4.17;;;5.90;99.90;;;;;;10438524;28;20198;-79
2022/01/29 04:45:12;;;;;;;4.50;4.20;;;5.90;99.90;;;;;;10438793;28;20252;-79
2022/01/29 04:50:15;;;;;;;4.90;4.27;;;5.90;99.90;;;;;;10463014;28;20197;-79
2022/01/29 04:55:18;;;;;;;7.13;3.80;;;5.90;99.90;;;;;;10449845;28;20248;-79
2022/01/29 05:00:21;;;;;;;4.73;4.10;;;5.90;99.90;;;;;;10451419;28;20736;-77
2022/01/29 05:05:23;;;;;;;4.83;4.33;;;5.90;99.90;;;;;;10423966;28;20228;-78
2022/01/29 05:10:27;;;;;;;4.20;3.90;;;6.00;99.90;;;;;;10440411;28;20670;-79
2022/01/29 05:15:36;;;;;;;7.50;5.93;;;6.10;99.90;;;;;;10428002;28;20252;-78
2022/01/29 05:31:18;;;;;;;10.10;9.10;;;6.20;99.90;;;;;;10427362;28;20209;-78
2022/01/29 05:36:20;;;;;;;10.00;9.07;;;6.20;99.90;;;;;;10437430;28;20268;-77
2022/01/29 05:41:24;;;;;;;10.10;9.10;;;6.10;99.90;;;;;;10425781;28;20225;-77
2022/01/29 05:46:26;;;;;;;10.47;9.37;;;6.10;99.90;;;;;;10412720;28;20233;-78
2022/01/29 05:51:30;;;;;;;13.33;11.63;;;6.10;99.90;;;;;;10427394;28;20276;-78
2022/01/29 05:56:33;;;;;;;14.80;11.53;;;6.10;99.90;;;;;;10437266;28;20213;-78
2022/01/29 06:01:35;;;;;;;13.73;12.00;;;6.10;99.90;;;;;;10431628;28;20214;-77
2022/01/29 06:06:37;;;;;;;13.93;11.20;;;6.10;99.90;;;;;;10436184;28;20225;-78
2022/01/29 06:11:41;;;;;;;12.40;11.10;;;6.00;99.90;;;;;;10405549;28;20202;-77
2022/01/29 06:16:43;;;;;;;14.27;12.90;;;6.00;99.90;;;;;;10432161;28;20649;-77
2022/01/29 06:21:45;;;;;;;14.17;12.67;;;6.00;99.90;;;;;;10413253;28;20305;-78
2022/01/29 06:26:48;;;;;;;13.40;11.90;;;6.00;99.90;;;;;;10418585;28;20221;-77
2022/01/29 06:31:50;;;;;;;14.93;13.33;;;6.00;99.90;;;;;;10433194;28;20660;-77
2022/01/29 06:36:52;;;;;;;14.30;12.80;;;6.00;99.90;;;;;;10422017;28;20226;-78
2022/01/29 06:41:56;;;;;;;14.73;13.23;;;6.00;99.90;;;;;;10434861;28;20213;-78
2022/01/29 06:46:58;;;;;;;12.43;11.23;;;6.00;99.90;;;;;;10413071;28;20233;-78
2022/01/29 06:52:00;;;;;;;12.83;11.63;;;6.00;99.90;;;;;;10442943;28;20198;-77
2022/01/29 06:57:04;;;;;;;15.30;13.73;;;6.00;99.90;;;;;;10451565;28;20596;-78
2022/01/29 07:02:10;;;;;;;17.10;15.37;;;6.00;99.90;;;;;;10413280;28;20593;-77
2022/01/29 07:07:12;;;;;;;13.80;12.40;;;6.00;99.90;;;;;;10429636;28;20249;-78
2022/01/29 07:12:15;;;;;;;17.73;15.40;;;6.00;99.90;;;;;;10417127;28;20201;-77
2022/01/29 07:17:22;;;;;;;14.27;11.53;;;6.00;99.90;;;;;;10412909;28;20229;-78
2022/01/29 07:22:24;;;;;;;12.60;11.30;;;6.00;99.90;;;;;;10407237;28;20214;-79
2022/01/29 07:27:28;;;;;;;13.40;11.57;;;5.90;99.90;;;;;;10443401;28;20217;-78
2022/01/29 07:32:30;;;;;;;11.63;10.37;;;5.90;99.90;;;;;;10452008;28;20197;-77
2022/01/29 07:37:32;;;;;;;12.17;10.10;;;5.80;99.90;;;;;;10440744;28;20205;-78
2022/01/29 07:42:49;;;;;;;9.30;7.90;;;5.70;99.90;;;;;;10448531;28;20272;-78
2022/01/29 07:48:19;;;;;;;5.47;4.97;;;5.70;99.90;;;;;;10416096;28;20289;-79
2022/01/29 07:53:24;;;;;;;7.30;6.60;;;5.80;99.90;;;;;;10480422;23;20245;-82
2022/01/29 07:58:28;;;;;;;5.50;4.97;;;5.80;99.90;;;;;;10572467;28;20203;-81
2022/01/29 08:03:30;;;;;;;5.33;4.83;;;5.90;99.90;;;;;;10563422;28;20230;-82
2022/01/29 08:08:32;;;;;;;5.90;3.90;;;5.90;99.90;;;;;;10551936;28;20219;-81
2022/01/29 08:13:35;;;;;;;6.60;4.30;;;5.90;99.90;;;;;;10555072;28;20703;-82
2022/01/29 08:18:37;;;;;;;7.23;4.40;;;6.00;99.90;;;;;;10545442;28;20281;-81
2022/01/29 08:23:40;;;;;;;6.37;5.03;;;6.10;99.90;;;;;;10566710;28;20220;-82
2022/01/29 08:28:43;;;;;;;6.33;4.67;;;6.10;99.50;;;;;;10585994;28;20234;-82
2022/01/29 08:33:45;;;;;;;5.40;4.20;;;6.10;99.90;;;;;;10578897;28;20249;-81
2022/01/29 08:38:47;;;;;;;4.37;4.03;;;6.20;99.90;;;;;;10543664;28;20250;-81
2022/01/29 08:43:51;;;;;;;4.60;4.20;;;6.30;99.80;;;;;;10560261;28;20223;-81
2022/01/29 08:48:53;;;;;;;4.37;3.80;;;6.50;99.90;;;;;;10574358;28;20255;-82
2022/01/29 08:53:55;;;;;;;4.83;4.30;;;6.60;99.60;;;;;;10563526;28;20733;-81
2022/01/29 08:58:58;;;;;;;4.53;4.23;;;6.70;99.90;;;;;;10567138;28;20655;-82
2022/01/29 09:04:01;;;;;;;6.20;5.20;;;6.90;99.90;;;;;;10547283;28;20234;-82
2022/01/29 09:09:03;;;;;;;5.50;4.97;;;7.00;99.90;;;;;;10535015;28;20200;-82
2022/01/29 09:14:07;;;;;;;6.43;5.20;;;7.10;99.50;;;;;;10550916;28;20226;-81
2022/01/29 09:19:09;;;;;;;6.30;5.70;;;7.10;98.40;;;;;;10565448;28;20199;-82
2022/01/29 09:24:11;;;;;;;6.00;5.30;;;7.10;99.90;;;;;;10544318;28;20653;-82
2022/01/29 09:29:14;;;;;;;6.73;5.57;;;7.20;99.90;;;;;;10548940;28;20203;-82
2022/01/29 09:34:17;;;;;;;5.47;4.97;;;7.30;99.70;;;;;;10561096;28;20210;-82
2022/01/29 09:39:19;;;;;;;5.40;4.90;;;7.40;99.90;;;;;;10562163;28;20638;-82
2022/01/29 09:44:23;;;;;;;6.60;5.90;;;7.50;99.20;;;;;;10552211;28;20233;-82
2022/01/29 09:49:25;;;;;;;5.63;5.07;;;7.70;98.70;;;;;;10574735;28;20673;-82
2022/01/29 09:54:27;;;;;;;4.80;4.40;;;7.90;98.70;;;;;;10557438;28;20219;-82
2022/01/29 09:59:30;;;;;;;5.67;5.17;;;8.00;99.10;;;;;;10553844;28;20204;-83
2022/01/29 10:04:46;;;;;;;5.93;5.43;;;8.00;99.30;;;;;;10545431;28;20234;-83
2022/01/29 10:09:49;;;;;;;6.30;5.17;;;8.20;99.60;;;;;;10540817;28;20194;-83
2022/01/29 10:14:55;;;;;;;6.00;5.47;;;8.40;98.50;;;;;;10540211;28;20229;-83
2022/01/29 10:20:08;;;;;;;7.10;5.70;;;8.50;99.80;;;;;;10523832;28;20299;-83
2022/01/29 10:25:14;;;;;;;5.27;4.77;;;8.50;99.60;;;;;;10544586;28;20227;-83
2022/01/29 10:30:18;;;;;;;5.77;5.27;;;8.50;99.60;;;;;;10542537;28;20211;-83
2022/01/29 10:35:20;;;;;;;6.33;5.70;;;8.50;99.80;;;;;;10563757;28;20653;-83
2022/01/29 10:40:27;;;;;;;4.70;4.40;;;8.70;99.80;;;;;;10542574;28;20188;-83
2022/01/29 10:45:34;;;;;;;5.73;5.03;;;8.80;99.90;;;;;;10555765;28;20350;-83
2022/01/29 10:50:36;;;;;;;6.03;5.43;;;8.90;99.90;;;;;;10551397;28;20219;-83
2022/01/29 10:55:58;;;;;;;6.77;5.50;;;8.90;99.20;;;;;;10560346;28;20246;-83
2022/01/29 11:01:16;;;;;;;6.50;5.40;;;8.90;99.20;;;;;;10533019;28;20271;-83
2022/01/29 11:06:20;;;;;;;4.20;3.90;;;9.00;99.10;;;;;;10545254;28;20230;-83
2022/01/29 11:11:24;;;;;;;4.03;3.37;;;8.90;99.20;;;;;;10548172;28;20662;-83
2022/01/29 11:16:28;;;;;;;3.37;3.17;;;9.00;99.70;;;;;;10562800;28;20637;-83
2022/01/29 11:21:32;;;;;;;3.73;3.43;;;8.90;99.90;;;;;;10554564;28;20221;-83
2022/01/29 11:26:36;;;;;;;3.40;3.10;;;9.00;99.90;;;;;;10502167;28;20231;-83
2022/01/29 11:31:39;;;;;;;3.13;2.83;;;9.10;99.90;;;;;;10547691;28;20188;-82
2022/01/29 11:37:03;;;;;;;3.50;3.20;;;9.10;99.90;;;;;;10556363;28;20605;-82
2022/01/29 11:42:31;;;;;;;2.67;2.47;;;9.10;99.90;;;;;;10537923;28;20208;-82
2022/01/29 11:47:59;;;;;;;3.47;3.17;;;9.10;99.90;;;;;;10563972;28;20294;-84
2022/01/29 11:53:04;;;;;;;2.73;2.53;;;9.10;99.90;;;;;;10540818;28;20287;-81
2022/01/29 11:58:23;;;;;;;3.27;3.03;;;9.10;99.90;;;;;;10538570;28;20192;-81
2022/01/29 12:03:56;;;;;;;4.73;2.50;;;9.10;99.90;;;;;;10556133;28;20254;-83
2022/01/29 12:09:21;;;;;;;2.97;2.60;;;9.10;99.90;;;;;;10563455;28;20198;-83
2022/01/29 12:14:26;;;;;;;4.60;2.90;;;9.10;99.90;;;;;;10564393;28;20211;-82
2022/01/29 12:19:40;;;;;;;2.97;2.70;;;9.10;99.90;;;;;;10565198;28;20215;-82
2022/01/29 12:24:49;;;;;;;3.00;2.80;;;9.10;99.90;;;;;;10554388;28;20239;-83
2022/01/29 12:29:52;;;;;;;3.27;2.97;;;9.10;99.90;;;;;;10575332;28;20596;-82
2022/01/29 12:34:56;;;;;;;2.93;2.73;;;9.10;99.90;;;;;;10534310;28;20229;-81
2022/01/29 12:40:07;;;;;;;2.80;2.60;;;9.20;99.90;;;;;;10547278;28;20275;-81
2022/01/29 12:45:10;;;;;;;3.07;2.87;;;9.20;99.90;;;;;;10548005;28;20220;-80
2022/01/29 12:50:19;;;;;;;2.80;2.60;;;9.20;99.90;;;;;;10562788;28;20686;-81
2022/01/29 12:55:22;;;;;;;2.83;2.60;;;9.20;99.90;;;;;;10585695;28;20218;-82
2022/01/29 13:00:24;;;;;;;3.17;2.87;;;9.20;99.90;;;;;;10575905;28;20638;-82
2022/01/29 13:05:28;;;;;;;2.60;2.40;;;9.10;99.90;;;;;;10568304;28;20220;-82
2022/01/29 13:10:35;;;;;;;2.70;2.50;;;9.10;99.90;;;;;;10534100;28;20249;-82
2022/01/29 13:15:39;;;;;;;2.67;2.47;;;9.00;99.90;;;;;;10544232;28;20215;-81
2022/01/29 13:20:43;;;;;;;3.07;2.83;;;8.90;99.90;;;;;;10529208;28;20247;-81
2022/01/29 13:25:45;;;;;;;3.53;3.10;;;8.80;99.90;;;;;;10575334;28;20231;-82
2022/01/29 13:30:47;;;;;;;3.30;3.00;;;8.70;99.90;;;;;;10562704;28;20267;-82
2022/01/29 13:35:53;;;;;;;3.00;2.73;;;8.70;99.90;;;;;;10556649;28;20207;-82
2022/01/29 13:40:57;;;;;;;3.37;3.10;;;8.60;99.90;;;;;;10564507;28;20551;-81
2022/01/29 13:46:01;;;;;;;3.37;3.07;;;8.60;99.90;;;;;;10533796;28;20272;-81
2022/01/29 13:51:04;;;;;;;3.00;2.77;;;8.50;99.90;;;;;;10550291;28;20279;-81
2022/01/29 13:56:09;;;;;;;3.20;3.00;;;8.50;99.90;;;;;;10553710;22;20262;-79
2022/01/29 14:01:12;;;;;;;2.83;2.63;;;8.50;99.90;;;;;;10521341;28;20196;-77
2022/01/29 14:06:27;;;;;;;2.93;2.73;;;8.50;99.90;;;;;;10529314;28;20227;-77
2022/01/29 14:12:04;;;;;;;3.00;2.80;;;8.50;99.90;;;;;;10530372;28;20204;-79
2022/01/29 14:17:08;;;;;;;3.27;3.00;;;8.50;99.90;;;;;;10524695;28;20302;-79
2022/01/29 14:22:12;;;;;;;2.70;2.50;;;8.50;99.90;;;;;;10534393;28;20199;-79
2022/01/29 14:27:14;;;;;;;3.13;2.87;;;8.60;99.90;;;;;;10536257;28;20699;-79
2022/01/29 14:32:18;;;;;;;2.67;2.47;;;8.60;99.90;;;;;;10539485;28;20210;-79
2022/01/29 14:37:21;;;;;;;3.20;3.00;;;8.60;99.90;;;;;;10541600;28;20239;-79
2022/01/29 14:42:27;;;;;;;2.20;2.10;;;8.60;99.90;;;;;;10530983;28;20215;-79
2022/01/29 14:47:31;;;;;;;2.80;2.60;;;8.50;99.90;;;;;;10540788;28;20218;-79
2022/01/29 14:52:36;;;;;;;2.90;2.70;;;8.40;99.90;;;;;;10546651;28;20196;-79
2022/01/29 14:57:39;;;;;;;3.60;2.77;;;8.40;99.90;;;;;;10537424;28;20291;-78
2022/01/29 15:02:41;;;;;;;2.67;2.47;;;8.40;99.90;;;;;;10535973;28;20223;-76
2022/01/29 15:07:52;;;;;;;3.07;2.83;;;8.40;99.90;;;;;;10531298;28;20196;-79
2022/01/29 15:12:56;;;;;;;4.63;3.00;;;8.40;99.90;;;;;;10527217;28;20284;-79
2022/01/29 15:17:58;;;;;;;3.17;2.80;;;8.50;99.90;;;;;;10538699;28;20231;-76
2022/01/29 15:23:03;;;;;;;2.80;2.60;;;8.50;99.90;;;;;;10524669;28;20228;-77
2022/01/29 15:28:07;;;;;;;3.13;2.93;;;8.50;99.90;;;;;;10526110;28;20293;-77
2022/01/29 15:33:10;;;;;;;3.77;3.47;;;8.50;99.90;;;;;;10522203;28;20209;-78
2022/01/29 15:38:13;;;;;;;2.83;2.63;;;8.50;99.90;;;;;;10514133;28;20201;-77
2022/01/29 15:43:16;;;;;;;3.40;3.20;;;8.50;99.90;;;;;;10527310;28;20224;-79
2022/01/29 15:48:19;;;;;;;2.77;2.57;;;8.50;99.90;;;;;;10542141;28;20200;-80
2022/01/29 15:53:23;;;;;;;3.13;2.90;;;8.40;99.90;;;;;;10542717;28;20315;-77
2022/01/29 15:58:25;;;;;;;2.87;2.67;;;8.40;99.90;;;;;;10538566;28;20231;-77
2022/01/29 16:03:28;;;;;;;4.33;4.03;;;8.40;99.90;;;;;;10535841;28;20711;-79
2022/01/29 16:08:31;;;;;;;3.30;3.10;;;8.40;99.90;;;;;;10543769;28;20204;-78
2022/01/29 16:13:33;;;;;;;3.70;3.40;;;8.40;99.90;;;;;;10541057;28;20299;-79
2022/01/29 16:18:36;;;;;;;3.03;2.83;;;8.30;99.90;;;;;;10519270;28;20204;-80
2022/01/29 16:23:39;;;;;;;2.90;2.70;;;8.30;99.90;;;;;;10525831;28;20225;-80
2022/01/29 16:28:43;;;;;;;2.83;2.63;;;8.20;99.90;;;;;;10543043;28;20206;-78
2022/01/29 16:33:45;;;;;;;3.00;2.80;;;8.10;99.90;;;;;;10516263;28;20215;-78
2022/01/29 16:38:52;;;;;;;3.57;3.37;;;8.10;99.90;;;;;;10521146;28;20196;-80
2022/01/29 16:43:54;;;;;;;3.10;2.90;;;8.10;99.90;;;;;;10521243;28;20223;-78
2022/01/29 16:48:59;;;;;;;3.40;3.20;;;8.00;99.90;;;;;;10534189;28;20224;-77
2022/01/29 16:54:03;;;;;;;3.30;2.90;;;8.10;99.90;;;;;;10538696;28;20224;-80
2022/01/29 16:59:05;;;;;;;3.33;3.10;;;8.10;99.90;;;;;;10518497;28;20253;-80
2022/01/29 17:04:07;;;;;;;3.00;2.80;;;8.10;99.90;;;;;;10542492;28;20218;-79
2022/01/29 17:09:11;;;;;;;3.70;3.40;;;8.10;99.90;;;;;;10517564;28;20284;-77
2022/01/29 17:14:13;;;;;;;4.23;3.83;;;8.10;99.90;;;;;;10517067;28;20691;-79
2022/01/29 17:19:15;;;;;;;3.80;3.50;;;8.10;99.90;;;;;;10539614;28;20200;-78
2022/01/29 17:24:21;;;;;;;2.07;1.97;;;8.10;99.90;;;;;;10526139;28;20691;-77
2022/01/29 17:29:25;;;;;;;2.10;2.00;;;8.10;99.90;;;;;;10523119;28;20196;-77
2022/01/29 17:34:30;;;;;;;1.70;1.60;;;8.20;99.90;;;;;;10513819;28;20690;-79
2022/01/29 17:39:34;;;;;;;1.60;1.50;;;8.30;99.90;;;;;;10536800;28;20191;-78
2022/01/29 17:44:36;;;;;;;1.70;1.60;;;8.20;99.90;;;;;;10505827;28;20251;-79
2022/01/29 17:49:41;;;;;;;1.50;1.33;;;8.30;99.90;;;;;;10532007;28;20204;-77
2022/01/29 17:54:44;;;;;;;1.90;1.80;;;8.30;99.90;;;;;;10528233;28;20224;-77
2022/01/29 17:59:47;;;;;;;1.40;1.30;;;8.30;99.90;;;;;;10530805;28;20683;-79
2022/01/29 18:04:50;;;;;;;2.07;1.23;;;8.30;99.90;;;;;;10522309;28;20223;-78
2022/01/29 18:09:53;;;;;;;1.50;1.40;;;8.30;99.90;;;;;;10517951;28;20307;-79
2022/01/29 18:14:55;;;;;;;1.60;1.50;;;8.40;99.90;;;;;;10510611;28;20766;-80
2022/01/29 18:19:57;;;;;;;1.57;1.47;;;8.50;99.90;;;;;;10537372;28;20238;-79
2022/01/29 18:25:03;;;;;;;1.40;1.30;;;8.50;99.90;;;;;;10538259;28;20219;-78
2022/01/29 18:30:09;;;;;;;1.57;1.47;;;8.50;99.90;;;;;;10525667;28;20201;-78
2022/01/29 18:35:14;;;;;;;2.00;1.90;;;8.60;99.90;;;;;;10484079;28;20751;-78
2022/01/29 18:40:26;;;;;;;1.60;1.50;;;8.60;99.90;;;;;;10516894;28;20677;-78
2022/01/29 18:45:28;;;;;;;1.70;1.60;;;8.60;99.90;;;;;;10533593;28;20634;-78
2022/01/29 18:50:31;;;;;;;1.70;1.60;;;8.70;99.90;;;;;;10534373;28;20208;-77
2022/01/29 18:55:34;;;;;;;2.30;2.20;;;8.70;99.90;;;;;;10524323;28;20231;-77
2022/01/29 19:00:37;;;;;;;1.77;1.50;;;8.70;99.90;;;;;;10526753;28;20213;-77
2022/01/29 19:05:39;;;;;;;1.57;1.47;;;8.70;99.90;;;;;;10513784;28;20224;-77
2022/01/29 19:10:43;;;;;;;1.40;1.40;;;8.80;99.90;;;;;;10522646;28;20192;-77
2022/01/29 19:15:50;;;;;;;1.50;1.40;;;8.80;99.90;;;;;;10493836;28;20212;-77
2022/01/29 19:20:52;;;;;;;1.70;1.60;;;8.90;99.90;;;;;;10502809;28;20257;-76
2022/01/29 19:25:55;;;;;;;1.33;1.30;;;8.90;99.90;;;;;;10535071;28;20213;-77
2022/01/29 19:30:57;;;;;;;1.50;1.40;;;8.90;99.90;;;;;;10544672;28;20286;-77
2022/01/29 19:35:59;;;;;;;1.47;1.40;;;8.90;99.90;;;;;;10512830;28;20254;-78
2022/01/29 19:41:03;;;;;;;1.10;1.00;;;8.90;99.90;;;;;;10538237;28;20193;-77
2022/01/29 19:46:05;;;;;;;1.03;1.03;;;8.80;99.90;;;;;;10528221;28;20229;-78
2022/01/29 19:51:08;;;;;;;1.60;1.50;;;8.80;99.90;;;;;;10536207;28;20664;-78
2022/01/29 19:56:11;;;;;;;1.53;1.30;;;8.80;99.90;;;;;;10512469;22;20232;-82
2022/01/29 20:01:14;;;;;;;3.03;2.83;;;8.70;99.90;;;;;;10461202;28;20194;-78
2022/01/29 20:06:16;;;;;;;1.63;1.53;;;8.60;99.90;;;;;;10446751;28;20221;-78
2022/01/29 20:11:24;;;;;;;1.60;1.50;;;8.40;99.90;;;;;;10450693;28;20312;-78
2022/01/29 20:16:29;;;;;;;1.00;1.00;;;8.30;99.90;;;;;;10416138;28;20245;-77
2022/01/29 20:21:32;;;;;;;1.30;1.30;;;8.30;99.90;;;;;;10416275;28;20213;-80
2022/01/29 20:26:35;;;;;;;1.40;1.30;;;8.20;99.90;;;;;;10431949;28;20245;-79
2022/01/29 20:31:38;;;;;;;4.10;1.40;;;8.20;99.90;;;;;;10454580;28;20204;-79
2022/01/29 20:36:40;;;;;;;1.30;1.20;;;8.20;99.90;;;;;;10412397;28;20218;-78
2022/01/29 20:41:44;;;;;;;1.30;1.20;;;8.20;99.90;;;;;;10416432;28;20209;-79
2022/01/29 20:46:52;;;;;;;1.30;1.20;;;8.30;99.90;;;;;;10429172;28;20221;-79
2022/01/29 20:51:54;;;;;;;2.90;1.70;;;8.20;99.90;;;;;;10424267;28;20251;-79
2022/01/29 20:56:58;;;;;;;2.00;1.90;;;8.00;99.90;;;;;;10423093;28;20696;-77
2022/01/29 21:02:01;;;;;;;1.67;1.57;;;7.80;99.90;;;;;;10415824;28;20674;-77
2022/01/29 21:07:05;;;;;;;1.50;1.40;;;7.70;99.90;;;;;;10452786;28;20232;-78
2022/01/29 21:12:10;;;;;;;1.73;1.63;;;7.60;99.90;;;;;;10455248;28;20240;-79
2022/01/29 21:17:12;;;;;;;2.10;2.00;;;7.50;99.90;;;;;;10434201;28;20229;-78
2022/01/29 21:22:14;;;;;;;1.97;1.87;;;7.40;99.90;;;;;;10439062;28;20208;-79
2022/01/29 21:27:18;;;;;;;2.80;2.60;;;7.40;99.90;;;;;;10457912;28;20304;-80
2022/01/29 21:32:20;;;;;;;2.93;2.73;;;7.40;99.90;;;;;;10431593;28;20193;-77
2022/01/29 21:37:22;;;;;;;2.90;2.70;;;7.30;99.90;;;;;;10450145;28;20224;-77
2022/01/29 21:42:26;;;;;;;2.60;2.50;;;7.20;99.90;;;;;;10448705;28;20669;-78
2022/01/29 21:47:28;;;;;;;2.90;2.80;;;7.20;99.90;;;;;;10426235;28;20603;-79
2022/01/29 21:52:30;;;;;;;3.00;2.90;;;7.20;99.90;;;;;;10414827;28;20209;-77
2022/01/29 21:57:33;;;;;;;2.97;2.77;;;7.20;99.90;;;;;;10447085;28;20312;-79
2022/01/29 22:02:35;;;;;;;3.00;2.80;;;7.20;99.90;;;;;;10452080;28;20794;-79
2022/01/29 22:07:37;;;;;;;2.60;2.50;;;7.10;99.90;;;;;;10456867;28;20237;-79
2022/01/29 22:12:41;;;;;;;2.57;2.47;;;7.10;99.90;;;;;;10452178;28;20265;-79
2022/01/29 22:17:43;;;;;;;2.40;2.30;;;7.10;99.90;;;;;;10454370;28;20292;-80
2022/01/29 22:22:46;;;;;;;2.47;2.37;;;7.10;99.90;;;;;;10450675;28;20217;-79
2022/01/29 22:27:49;;;;;;;2.50;2.40;;;7.10;99.90;;;;;;10441723;28;20235;-77
2022/01/29 22:32:53;;;;;;;2.60;2.50;;;7.20;99.90;;;;;;10450153;28;20201;-78
2022/01/29 22:37:56;;;;;;;2.50;2.40;;;7.30;99.90;;;;;;10448088;28;20221;-81
2022/01/29 22:42:59;;;;;;;2.40;2.30;;;7.30;99.90;;;;;;10443021;28;20204;-77
2022/01/29 22:48:01;;;;;;;2.13;2.13;;;7.30;99.90;;;;;;10434902;28;20236;-80
2022/01/29 22:53:04;;;;;;;2.40;2.30;;;7.30;99.90;;;;;;10446003;28;20236;-79
2022/01/29 22:58:07;;;;;;;2.30;2.20;;;7.30;99.90;;;;;;10444879;28;20704;-77
2022/01/29 23:03:10;;;;;;;2.77;2.67;;;7.30;99.90;;;;;;10444083;28;20197;-79
2022/01/29 23:08:13;;;;;;;2.13;2.03;;;7.40;99.90;;;;;;10451669;28;20591;-80
2022/01/29 23:13:22;;;;;;;2.03;1.93;;;7.30;99.90;;;;;;10456483;28;20641;-80
2022/01/29 23:18:24;;;;;;;2.17;2.10;;;7.20;99.90;;;;;;10460485;28;20197;-80
2022/01/29 23:23:29;;;;;;;1.80;1.70;;;7.20;99.90;;;;;;10433832;28;20198;-79
2022/01/29 23:28:49;;;;;;;2.10;2.00;;;7.20;99.90;;;;;;10419740;28;20280;-79
2022/01/29 23:39:12;;;;;;;1.40;1.40;;;7.20;99.90;;;;;;10443921;28;20208;-80
2022/01/29 23:44:22;;;;;;;1.50;1.50;;;7.30;99.90;;;;;;10438541;28;20582;-80
2022/01/29 23:49:24;;;;;;;1.90;1.80;;;7.40;99.90;;;;;;10422111;28;20288;-78
2022/01/29 23:54:27;;;;;;;1.70;1.63;;;7.50;99.90;;;;;;10452756;28;20229;-80
2022/01/29 23:59:30;;;;;;;1.37;1.37;;;7.50;99.90;;;;;;10449495;28;20681;-79
